createdAt,value
2018-06-15T00:00:06.314Z,21.49
2018-06-15T00:00:46.847Z,21.54
2018-06-15T00:01:27.409Z,21.47
2018-06-15T00:02:07.937Z,21.46
2018-06-15T00:02:48.443Z,21.44
2018-06-15T00:03:28.985Z,21.46
2018-06-15T00:04:09.523Z,21.37
2018-06-15T00:04:50.044Z,21.44
2018-06-15T00:05:30.611Z,21.38
2018-06-15T00:06:11.142Z,21.34
2018-06-15T00:06:51.676Z,21.4
2018-06-15T00:07:32.201Z,21.37
2018-06-15T00:08:12.737Z,21.46
2018-06-15T00:10:26.026Z,21.37
2018-06-15T00:11:06.548Z,21.38
2018-06-15T00:11:47.090Z,21.31
2018-06-15T00:12:27.619Z,21.34
2018-06-15T00:13:08.146Z,21.32
2018-06-15T00:13:48.641Z,21.32
2018-06-15T00:14:29.167Z,21.27
2018-06-15T00:15:09.702Z,21.44
2018-06-15T00:15:50.225Z,21.43
2018-06-15T00:16:30.762Z,21.37
2018-06-15T00:17:11.268Z,21.43
2018-06-15T00:17:51.784Z,21.42
2018-06-15T00:18:32.308Z,21.52
2018-06-15T00:19:12.814Z,21.42
2018-06-15T00:19:53.343Z,21.49
2018-06-15T00:20:33.867Z,21.53
2018-06-15T00:21:14.382Z,21.49
2018-06-15T00:21:54.899Z,21.42
2018-06-15T00:22:35.423Z,21.49
2018-06-15T00:23:15.932Z,21.43
2018-06-15T00:23:56.460Z,21.43
2018-06-15T00:24:36.983Z,21.47
2018-06-15T00:25:17.491Z,21.47
2018-06-15T00:25:58.010Z,21.49
2018-06-15T00:26:38.523Z,21.53
2018-06-15T00:27:19.070Z,21.53
2018-06-15T00:27:59.584Z,21.53
2018-06-15T00:28:40.096Z,21.5
2018-06-15T00:29:20.617Z,21.5
2018-06-15T00:30:01.135Z,21.38
2018-06-15T00:30:41.661Z,21.43
2018-06-15T00:31:22.170Z,21.43
2018-06-15T00:32:02.695Z,21.42
2018-06-15T00:32:43.212Z,21.38
2018-06-15T00:33:23.829Z,21.43
2018-06-15T00:34:04.348Z,21.43
2018-06-15T00:34:44.870Z,21.53
2018-06-15T00:35:25.565Z,21.46
2018-06-15T00:36:06.080Z,21.46
2018-06-15T00:36:46.612Z,21.49
2018-06-15T00:37:27.145Z,21.5
2018-06-15T00:38:07.657Z,21.49
2018-06-15T00:38:48.187Z,21.53
2018-06-15T00:39:28.724Z,21.5
2018-06-15T00:40:09.235Z,21.38
2018-06-15T00:40:49.752Z,21.44
2018-06-15T00:41:30.262Z,21.5
2018-06-15T00:42:10.789Z,21.47
2018-06-15T00:42:51.295Z,21.44
2018-06-15T00:43:31.826Z,21.43
2018-06-15T00:44:12.344Z,21.44
2018-06-15T00:44:52.872Z,21.32
2018-06-15T00:45:33.391Z,21.38
2018-06-15T00:46:13.907Z,21.4
2018-06-15T00:46:54.427Z,21.42
2018-06-15T00:47:34.945Z,21.42
2018-06-15T00:48:15.479Z,21.4
2018-06-15T00:48:56.055Z,21.31
2018-06-15T00:49:36.533Z,21.37
2018-06-15T00:50:17.045Z,21.34
2018-06-15T00:50:57.579Z,21.34
2018-06-15T00:51:38.089Z,21.37
2018-06-15T00:52:18.627Z,21.34
2018-06-15T00:52:59.138Z,21.29
2018-06-15T00:53:39.671Z,21.28
2018-06-15T00:54:20.190Z,21.34
2018-06-15T00:55:00.720Z,21.34
2018-06-15T00:55:41.244Z,21.25
2018-06-15T00:56:21.785Z,21.31
2018-06-15T00:57:02.313Z,21.34
2018-06-15T00:57:42.824Z,21.31
2018-06-15T00:58:23.349Z,21.21
2018-06-15T00:59:03.873Z,21.16
2018-06-15T00:59:44.372Z,21.19
2018-06-15T01:00:24.922Z,21.21
2018-06-15T01:01:05.464Z,21.22
2018-06-15T01:01:46.000Z,21.12
2018-06-15T01:02:26.527Z,21.12
2018-06-15T01:03:07.035Z,21.14
2018-06-15T01:03:47.552Z,21.31
2018-06-15T01:04:28.071Z,21.22
2018-06-15T01:05:08.574Z,21.27
2018-06-15T01:05:49.100Z,21.21
2018-06-15T01:06:29.623Z,21.25
2018-06-15T01:07:10.195Z,21.22
2018-06-15T01:07:50.715Z,21.27
2018-06-15T01:08:31.232Z,21.24
2018-06-15T01:09:11.751Z,21.27
2018-06-15T01:09:52.271Z,21.16
2018-06-15T01:10:32.787Z,21.22
2018-06-15T01:11:13.314Z,21.19
2018-06-15T01:11:53.838Z,21.28
2018-06-15T01:12:34.358Z,21.27
2018-06-15T01:13:14.882Z,21.29
2018-06-15T01:13:55.407Z,21.22
2018-06-15T01:14:35.939Z,21.24
2018-06-15T01:15:16.464Z,21.19
2018-06-15T01:15:56.972Z,21.27
2018-06-15T01:16:37.503Z,21.27
2018-06-15T01:17:18.030Z,21.22
2018-06-15T01:17:58.550Z,21.12
2018-06-15T01:18:39.054Z,21.16
2018-06-15T01:19:19.578Z,21.13
2018-06-15T01:20:00.092Z,21.07
2018-06-15T01:20:40.629Z,21.07
2018-06-15T01:21:21.108Z,21.01
2018-06-15T01:22:01.627Z,21.03
2018-06-15T01:22:42.137Z,21.1
2018-06-15T01:23:22.661Z,21.04
2018-06-15T01:24:03.178Z,21.1
2018-06-15T01:24:43.690Z,21.01
2018-06-15T01:25:24.215Z,21.01
2018-06-15T01:26:04.743Z,21.04
2018-06-15T01:26:45.260Z,21.07
2018-06-15T01:27:25.784Z,21.03
2018-06-15T01:28:06.303Z,20.99
2018-06-15T01:28:46.832Z,21.03
2018-06-15T01:29:27.369Z,21.1
2018-06-15T01:30:07.879Z,21.04
2018-06-15T01:30:48.408Z,21.13
2018-06-15T01:31:28.940Z,21.06
2018-06-15T01:32:09.463Z,21.07
2018-06-15T01:32:49.983Z,21.04
2018-06-15T01:33:30.513Z,21.06
2018-06-15T01:34:11.029Z,21.13
2018-06-15T01:34:51.545Z,21.09
2018-06-15T01:35:32.073Z,21.14
2018-06-15T01:36:12.599Z,21.16
2018-06-15T01:36:53.135Z,21.1
2018-06-15T01:37:33.646Z,21.06
2018-06-15T01:39:11.516Z,21.16
2018-06-15T01:39:52.030Z,21.04
2018-06-15T01:40:32.576Z,21.1
2018-06-15T01:41:13.080Z,21.06
2018-06-15T01:41:53.596Z,21.12
2018-06-15T01:42:34.113Z,21.21
2018-06-15T01:43:14.630Z,21.01
2018-06-15T01:43:55.150Z,21.04
2018-06-15T01:44:35.670Z,21.16
2018-06-15T01:45:16.176Z,20.99
2018-06-15T01:45:56.705Z,21.13
2018-06-15T01:46:37.230Z,21.12
2018-06-15T01:47:17.748Z,21.09
2018-06-15T01:47:58.270Z,21.09
2018-06-15T01:48:38.776Z,21.04
2018-06-15T01:49:19.296Z,20.99
2018-06-15T01:49:59.826Z,21.03
2018-06-15T01:50:40.347Z,20.99
2018-06-15T01:51:20.868Z,20.99
2018-06-15T01:52:01.391Z,20.89
2018-06-15T01:52:41.920Z,20.89
2018-06-15T01:53:22.436Z,20.88
2018-06-15T01:54:02.960Z,20.79
2018-06-15T01:54:43.500Z,20.87
2018-06-15T01:55:24.010Z,20.89
2018-06-15T01:56:04.520Z,20.88
2018-06-15T01:56:45.181Z,20.89
2018-06-15T01:57:25.631Z,20.85
2018-06-15T01:58:06.145Z,20.97
2018-06-15T01:58:46.668Z,21.03
2018-06-15T01:59:27.186Z,20.92
2018-06-15T02:00:07.717Z,21.01
2018-06-15T02:00:48.249Z,20.95
2018-06-15T02:01:28.769Z,20.99
2018-06-15T02:02:09.281Z,20.99
2018-06-15T02:02:49.798Z,20.97
2018-06-15T02:03:30.321Z,21.07
2018-06-15T02:04:10.833Z,21.06
2018-06-15T02:04:51.366Z,21.07
2018-06-15T02:05:31.877Z,21.04
2018-06-15T02:06:12.414Z,21.06
2018-06-15T02:06:52.940Z,20.98
2018-06-15T02:07:33.482Z,21.06
2018-06-15T02:08:13.997Z,21.04
2018-06-15T02:08:54.528Z,21.01
2018-06-15T02:09:35.066Z,21.1
2018-06-15T02:10:15.580Z,21.03
2018-06-15T02:10:56.111Z,20.97
2018-06-15T02:11:36.628Z,20.95
2018-06-15T02:12:17.148Z,20.97
2018-06-15T02:12:57.667Z,20.94
2018-06-15T02:13:38.187Z,21.03
2018-06-15T02:14:18.715Z,20.98
2018-06-15T02:14:59.227Z,20.95
2018-06-15T02:15:39.742Z,21.01
2018-06-15T02:16:20.281Z,20.95
2018-06-15T02:17:00.809Z,20.99
2018-06-15T02:17:41.334Z,21.03
2018-06-15T02:18:21.837Z,20.97
2018-06-15T02:19:02.369Z,20.91
2018-06-15T02:19:42.881Z,20.92
2018-06-15T02:20:23.410Z,20.98
2018-06-15T02:21:03.931Z,20.99
2018-06-15T02:21:44.446Z,20.98
2018-06-15T02:22:24.965Z,20.99
2018-06-15T02:23:05.487Z,20.99
2018-06-15T02:23:46.007Z,20.98
2018-06-15T02:24:26.530Z,20.85
2018-06-15T02:25:07.047Z,20.98
2018-06-15T02:25:47.563Z,20.98
2018-06-15T02:26:28.086Z,20.91
2018-06-15T02:27:08.614Z,20.95
2018-06-15T02:27:49.127Z,20.94
2018-06-15T02:28:29.641Z,20.98
2018-06-15T02:29:10.154Z,20.95
2018-06-15T02:29:50.674Z,20.87
2018-06-15T02:30:31.193Z,20.84
2018-06-15T02:31:11.715Z,20.89
2018-06-15T02:31:52.236Z,20.92
2018-06-15T02:32:32.770Z,20.91
2018-06-15T02:33:13.295Z,20.95
2018-06-15T02:33:53.810Z,20.88
2018-06-15T02:34:34.332Z,20.89
2018-06-15T02:35:14.841Z,20.87
2018-06-15T02:35:55.367Z,20.84
2018-06-15T02:36:35.909Z,20.8
2018-06-15T02:37:16.437Z,20.82
2018-06-15T02:37:56.989Z,20.8
2018-06-15T02:38:37.506Z,20.72
2018-06-15T02:39:18.024Z,20.76
2018-06-15T02:39:58.549Z,20.74
2018-06-15T02:40:39.050Z,20.74
2018-06-15T02:41:19.574Z,20.77
2018-06-15T02:42:00.079Z,20.79
2018-06-15T02:42:40.595Z,20.72
2018-06-15T02:43:21.114Z,20.77
2018-06-15T02:44:01.643Z,20.74
2018-06-15T02:44:42.161Z,20.73
2018-06-15T02:45:22.745Z,20.7
2018-06-15T02:46:03.209Z,20.64
2018-06-15T02:46:43.741Z,20.72
2018-06-15T02:47:24.249Z,20.73
2018-06-15T02:48:04.766Z,20.73
2018-06-15T02:48:45.289Z,20.64
2018-06-15T02:49:25.809Z,20.72
2018-06-15T02:50:06.308Z,20.64
2018-06-15T02:50:46.819Z,20.61
2018-06-15T02:51:27.358Z,20.62
2018-06-15T02:52:07.873Z,20.74
2018-06-15T02:52:48.387Z,20.64
2018-06-15T02:53:28.913Z,20.72
2018-06-15T02:54:09.431Z,20.73
2018-06-15T02:54:49.961Z,20.73
2018-06-15T02:55:30.469Z,20.73
2018-06-15T02:56:10.992Z,20.76
2018-06-15T02:56:51.523Z,20.72
2018-06-15T02:57:32.044Z,20.7
2018-06-15T02:58:12.555Z,20.74
2018-06-15T02:58:53.164Z,20.66
2018-06-15T02:59:33.663Z,20.72
2018-06-15T03:00:14.174Z,20.72
2018-06-15T03:00:54.684Z,20.72
2018-06-15T03:01:35.207Z,20.73
2018-06-15T03:02:15.739Z,20.74
2018-06-15T03:02:56.270Z,20.72
2018-06-15T03:03:36.787Z,20.7
2018-06-15T03:04:17.292Z,20.72
2018-06-15T03:04:57.830Z,20.74
2018-06-15T03:05:38.337Z,20.72
2018-06-15T03:06:18.853Z,20.7
2018-06-15T03:06:59.372Z,20.79
2018-06-15T03:07:39.872Z,20.89
2018-06-15T03:08:20.387Z,20.84
2018-06-15T03:09:00.902Z,20.7
2018-06-15T03:09:41.439Z,20.74
2018-06-15T03:10:21.941Z,20.69
2018-06-15T03:11:02.461Z,20.79
2018-06-15T03:11:42.972Z,20.61
2018-06-15T03:12:23.491Z,20.57
2018-06-15T03:13:04.003Z,20.67
2018-06-15T03:13:44.524Z,20.76
2018-06-15T03:14:25.041Z,20.73
2018-06-15T03:15:05.561Z,20.72
2018-06-15T03:15:46.095Z,20.7
2018-06-15T03:16:26.617Z,20.79
2018-06-15T03:17:07.141Z,20.7
2018-06-15T03:17:47.653Z,20.7
2018-06-15T03:18:28.169Z,20.72
2018-06-15T03:19:08.690Z,20.7
2018-06-15T03:19:49.207Z,20.69
2018-06-15T03:20:29.723Z,20.67
2018-06-15T03:21:10.245Z,20.69
2018-06-15T03:21:50.752Z,20.66
2018-06-15T03:22:31.268Z,20.59
2018-06-15T03:23:11.792Z,20.55
2018-06-15T03:23:52.310Z,20.61
2018-06-15T03:24:32.840Z,20.61
2018-06-15T03:25:13.640Z,20.59
2018-06-15T03:25:54.034Z,20.58
2018-06-15T03:26:34.551Z,20.58
2018-06-15T03:27:15.058Z,20.58
2018-06-15T03:27:55.579Z,20.51
2018-06-15T03:28:36.091Z,20.61
2018-06-15T03:29:16.610Z,20.47
2018-06-15T03:29:57.136Z,20.47
2018-06-15T03:30:37.669Z,20.51
2018-06-15T03:31:18.177Z,20.54
2018-06-15T03:31:58.704Z,20.55
2018-06-15T03:32:39.227Z,20.52
2018-06-15T03:33:19.744Z,20.57
2018-06-15T03:34:00.284Z,20.58
2018-06-15T03:34:40.806Z,20.59
2018-06-15T03:35:21.321Z,20.55
2018-06-15T03:36:01.837Z,20.61
2018-06-15T03:36:42.376Z,20.64
2018-06-15T03:37:22.889Z,20.55
2018-06-15T03:38:03.404Z,20.58
2018-06-15T03:38:43.926Z,20.7
2018-06-15T03:39:24.443Z,20.58
2018-06-15T03:40:04.960Z,20.58
2018-06-15T03:40:45.473Z,20.61
2018-06-15T03:41:25.982Z,20.55
2018-06-15T03:42:06.510Z,20.57
2018-06-15T03:42:47.023Z,20.61
2018-06-15T03:43:27.536Z,20.62
2018-06-15T03:44:08.054Z,20.61
2018-06-15T03:44:48.587Z,20.69
2018-06-15T03:45:29.080Z,20.74
2018-06-15T03:46:09.599Z,20.79
2018-06-15T03:46:50.118Z,20.8
2018-06-15T03:47:30.636Z,20.73
2018-06-15T03:48:11.147Z,20.85
2018-06-15T03:48:51.661Z,20.82
2018-06-15T03:49:32.180Z,20.92
2018-06-15T03:50:12.719Z,20.88
2018-06-15T03:50:53.319Z,20.97
2018-06-15T03:51:33.811Z,20.84
2018-06-15T03:52:14.322Z,20.91
2018-06-15T03:52:54.828Z,20.92
2018-06-15T03:53:35.358Z,20.84
2018-06-15T03:54:15.876Z,20.88
2018-06-15T03:54:56.422Z,20.82
2018-06-15T03:55:36.955Z,20.87
2018-06-15T03:56:17.459Z,20.87
2018-06-15T03:56:57.984Z,20.92
2018-06-15T03:57:38.497Z,20.88
2018-06-15T03:58:19.007Z,20.89
2018-06-15T03:58:59.537Z,20.95
2018-06-15T03:59:40.062Z,20.97
2018-06-15T04:00:20.590Z,21.01
2018-06-15T04:01:01.144Z,20.91
2018-06-15T04:01:41.655Z,21.01
2018-06-15T04:02:22.165Z,20.98
2018-06-15T04:03:02.684Z,20.95
2018-06-15T04:03:43.208Z,20.97
2018-06-15T04:04:23.738Z,20.97
2018-06-15T04:05:04.261Z,20.94
2018-06-15T04:05:44.781Z,20.97
2018-06-15T04:06:25.291Z,20.94
2018-06-15T04:07:05.827Z,20.98
2018-06-15T04:07:46.408Z,20.95
2018-06-15T04:08:26.871Z,20.95
2018-06-15T04:09:07.406Z,20.98
2018-06-15T04:09:47.911Z,20.98
2018-06-15T04:10:28.432Z,20.99
2018-06-15T04:11:08.954Z,20.95
2018-06-15T04:11:49.482Z,20.99
2018-06-15T04:12:30.007Z,21.03
2018-06-15T04:13:10.607Z,21.03
2018-06-15T04:13:51.031Z,21.06
2018-06-15T04:14:31.549Z,20.97
2018-06-15T04:15:12.066Z,21.1
2018-06-15T04:15:52.582Z,21.07
2018-06-15T04:16:33.111Z,21.09
2018-06-15T04:17:13.628Z,21.12
2018-06-15T04:17:54.157Z,21.19
2018-06-15T04:18:34.671Z,21.04
2018-06-15T04:19:15.199Z,21.17
2018-06-15T04:19:55.716Z,21.25
2018-06-15T04:20:36.254Z,21.13
2018-06-15T04:21:16.804Z,21.17
2018-06-15T04:21:57.298Z,21.14
2018-06-15T04:22:37.819Z,21.12
2018-06-15T04:23:18.337Z,21.17
2018-06-15T04:23:58.850Z,21.29
2018-06-15T04:24:39.381Z,21.22
2018-06-15T04:25:19.908Z,21.24
2018-06-15T04:26:00.435Z,21.29
2018-06-15T04:26:40.951Z,21.38
2018-06-15T04:27:21.481Z,21.37
2018-06-15T04:28:02.002Z,21.44
2018-06-15T04:28:42.521Z,21.54
2018-06-15T04:29:23.042Z,21.47
2018-06-15T04:30:03.580Z,21.56
2018-06-15T04:30:44.114Z,21.64
2018-06-15T04:31:24.635Z,21.74
2018-06-15T04:32:05.152Z,21.75
2018-06-15T04:32:45.669Z,21.77
2018-06-15T04:33:26.204Z,21.75
2018-06-15T04:34:06.727Z,21.69
2018-06-15T04:34:47.245Z,21.94
2018-06-15T04:35:27.762Z,21.94
2018-06-15T04:36:08.284Z,21.98
2018-06-15T04:36:48.859Z,22.02
2018-06-15T04:37:29.354Z,21.96
2018-06-15T04:38:09.861Z,21.9
2018-06-15T04:38:50.387Z,21.98
2018-06-15T04:39:30.908Z,22.02
2018-06-15T04:40:11.427Z,22.22
2018-06-15T04:40:51.944Z,22.25
2018-06-15T04:41:32.465Z,22.31
2018-06-15T04:42:12.974Z,22.43
2018-06-15T04:42:53.557Z,22.37
2018-06-15T04:43:34.111Z,22.51
2018-06-15T04:44:14.638Z,22.55
2018-06-15T04:44:55.162Z,22.46
2018-06-15T04:45:35.695Z,22.42
2018-06-15T04:46:16.208Z,22.4
2018-06-15T04:46:56.734Z,22.31
2018-06-15T04:47:37.230Z,22.28
2018-06-15T04:48:17.838Z,22.31
2018-06-15T04:48:58.282Z,22.31
2018-06-15T04:49:38.805Z,22.17
2018-06-15T04:50:19.322Z,22.17
2018-06-15T04:50:59.846Z,22.15
2018-06-15T04:51:40.366Z,22.15
2018-06-15T04:52:20.896Z,22.27
2018-06-15T04:53:01.414Z,22.15
2018-06-15T04:53:41.923Z,22.33
2018-06-15T04:54:22.462Z,22.21
2018-06-15T04:55:03.020Z,22.21
2018-06-15T04:55:43.514Z,22.31
2018-06-15T04:56:24.038Z,22.37
2018-06-15T04:57:04.566Z,22.51
2018-06-15T04:57:45.110Z,22.54
2018-06-15T04:58:25.631Z,22.43
2018-06-15T04:59:06.152Z,22.3
2018-06-15T04:59:46.674Z,22.46
2018-06-15T05:00:27.190Z,22.43
2018-06-15T05:01:07.708Z,22.42
2018-06-15T05:01:48.226Z,22.51
2018-06-15T05:02:28.764Z,22.62
2018-06-15T05:03:09.340Z,22.55
2018-06-15T05:03:49.802Z,22.49
2018-06-15T05:04:30.324Z,22.67
2018-06-15T05:05:10.838Z,22.68
2018-06-15T05:05:51.370Z,22.85
2018-06-15T05:06:31.895Z,22.61
2018-06-15T05:07:12.414Z,22.6
2018-06-15T05:07:52.930Z,22.64
2018-06-15T05:08:33.464Z,22.65
2018-06-15T05:09:14.258Z,22.6
2018-06-15T05:09:54.716Z,22.65
2018-06-15T05:10:35.237Z,22.62
2018-06-15T05:11:15.753Z,22.64
2018-06-15T05:11:56.259Z,22.61
2018-06-15T05:12:36.790Z,22.67
2018-06-15T05:13:17.312Z,22.67
2018-06-15T05:13:57.840Z,22.62
2018-06-15T05:14:38.365Z,22.77
2018-06-15T05:15:18.875Z,22.65
2018-06-15T05:15:59.404Z,22.8
2018-06-15T05:16:39.923Z,22.82
2018-06-15T05:17:20.569Z,22.85
2018-06-15T05:18:00.968Z,22.92
2018-06-15T05:18:41.498Z,22.98
2018-06-15T05:19:22.020Z,23.07
2018-06-15T05:20:02.531Z,23.05
2018-06-15T05:20:43.046Z,23.1
2018-06-15T05:21:23.589Z,23.16
2018-06-15T05:22:04.111Z,23.09
2018-06-15T05:22:44.644Z,22.86
2018-06-15T05:23:25.134Z,22.82
2018-06-15T05:24:05.674Z,22.85
2018-06-15T05:24:46.241Z,22.85
2018-06-15T05:25:26.759Z,22.91
2018-06-15T05:26:07.267Z,23
2018-06-15T05:26:47.793Z,23.12
2018-06-15T05:27:28.307Z,23.28
2018-06-15T05:28:08.840Z,23.32
2018-06-15T05:28:49.357Z,23.1
2018-06-15T05:29:29.865Z,23.17
2018-06-15T05:30:10.402Z,22.97
2018-06-15T05:30:50.919Z,22.95
2018-06-15T05:31:31.447Z,22.86
2018-06-15T05:32:11.971Z,22.85
2018-06-15T05:32:52.509Z,22.8
2018-06-15T05:33:33.023Z,22.83
2018-06-15T05:34:13.920Z,22.79
2018-06-15T05:34:54.437Z,22.8
2018-06-15T05:35:34.971Z,22.88
2018-06-15T05:36:15.459Z,22.86
2018-06-15T05:36:55.980Z,23.01
2018-06-15T05:37:36.476Z,22.92
2018-06-15T05:38:17.009Z,22.79
2018-06-15T05:38:57.545Z,22.77
2018-06-15T05:39:38.082Z,22.85
2018-06-15T05:40:18.599Z,22.83
2018-06-15T05:40:59.110Z,22.7
2018-06-15T05:41:39.644Z,22.67
2018-06-15T05:42:20.153Z,22.68
2018-06-15T05:43:00.662Z,22.77
2018-06-15T05:43:41.225Z,22.73
2018-06-15T05:44:21.733Z,22.8
2018-06-15T05:45:02.242Z,22.64
2018-06-15T05:45:42.773Z,22.65
2018-06-15T05:46:23.283Z,22.61
2018-06-15T05:47:03.788Z,22.65
2018-06-15T05:47:44.325Z,22.65
2018-06-15T05:48:24.860Z,22.7
2018-06-15T05:49:05.388Z,22.92
2018-06-15T05:49:45.883Z,22.79
2018-06-15T05:50:26.405Z,22.76
2018-06-15T05:51:06.930Z,22.67
2018-06-15T05:51:47.437Z,22.73
2018-06-15T05:52:27.943Z,22.7
2018-06-15T05:53:08.476Z,22.98
2018-06-15T05:53:48.981Z,22.98
2018-06-15T05:54:29.506Z,23.01
2018-06-15T05:55:10.035Z,23.32
2018-06-15T05:55:50.556Z,23.6
2018-06-15T05:56:31.077Z,23.93
2018-06-15T05:57:11.608Z,24.42
2018-06-15T05:57:52.125Z,24.65
2018-06-15T05:58:32.649Z,24.93
2018-06-15T05:59:13.177Z,24.8
2018-06-15T05:59:53.692Z,24.91
2018-06-15T06:00:34.207Z,24.77
2018-06-15T06:01:14.721Z,24.95
2018-06-15T06:01:55.221Z,25.05
2018-06-15T06:02:35.737Z,24.99
2018-06-15T06:03:16.263Z,24.9
2018-06-15T06:03:56.848Z,24.77
2018-06-15T06:04:37.345Z,24.81
2018-06-15T06:05:17.853Z,24.85
2018-06-15T06:05:58.380Z,25
2018-06-15T06:06:38.912Z,25.03
2018-06-15T06:07:19.445Z,25.1
2018-06-15T06:07:59.956Z,25.13
2018-06-15T06:08:40.474Z,25.2
2018-06-15T06:09:20.996Z,25.18
2018-06-15T06:10:01.540Z,25.18
2018-06-15T06:10:42.018Z,25.25
2018-06-15T06:11:22.555Z,25.32
2018-06-15T06:12:03.074Z,25.33
2018-06-15T06:12:43.600Z,25.43
2018-06-15T06:13:24.123Z,25.43
2018-06-15T06:14:04.666Z,25.43
2018-06-15T06:14:45.172Z,25.61
2018-06-15T06:15:25.721Z,25.72
2018-06-15T06:16:06.287Z,25.61
2018-06-15T06:16:46.773Z,25.72
2018-06-15T06:17:27.322Z,25.94
2018-06-15T06:18:07.842Z,25.88
2018-06-15T06:18:48.397Z,25.79
2018-06-15T06:19:28.872Z,25.76
2018-06-15T06:20:09.415Z,25.54
2018-06-15T06:20:49.914Z,25.61
2018-06-15T06:21:30.465Z,25.77
2018-06-15T06:22:11.003Z,25.77
2018-06-15T06:22:51.531Z,25.88
2018-06-15T06:23:32.059Z,25.77
2018-06-15T06:24:12.598Z,25.95
2018-06-15T06:24:53.112Z,25.88
2018-06-15T06:25:33.658Z,25.9
2018-06-15T06:26:14.144Z,26.05
2018-06-15T06:26:54.819Z,25.98
2018-06-15T06:27:35.247Z,25.98
2018-06-15T06:28:15.781Z,25.79
2018-06-15T06:28:56.341Z,25.87
2018-06-15T06:29:36.880Z,25.91
2018-06-15T06:30:17.391Z,25.92
2018-06-15T06:30:57.898Z,26.01
2018-06-15T06:31:38.429Z,26.02
2018-06-15T06:33:26.453Z,26.17
2018-06-15T06:34:06.981Z,26.17
2018-06-15T06:34:47.508Z,26.12
2018-06-15T06:35:28.033Z,26.1
2018-06-15T06:36:08.557Z,26.26
2018-06-15T06:36:49.144Z,25.99
2018-06-15T06:37:29.692Z,25.88
2018-06-15T06:38:10.212Z,25.75
2018-06-15T06:38:50.742Z,25.61
2018-06-15T06:39:31.253Z,25.65
2018-06-15T06:40:11.832Z,25.7
2018-06-15T06:40:52.319Z,25.67
2018-06-15T06:41:32.847Z,25.65
2018-06-15T06:42:13.355Z,25.64
2018-06-15T06:42:53.930Z,25.61
2018-06-15T06:43:34.462Z,25.62
2018-06-15T06:44:15.002Z,25.7
2018-06-15T06:44:55.479Z,25.64
2018-06-15T06:45:36.007Z,25.65
2018-06-15T06:46:16.517Z,25.72
2018-06-15T06:46:57.042Z,25.61
2018-06-15T06:47:38.167Z,25.65
2018-06-15T06:48:18.656Z,25.65
2018-06-15T06:48:59.176Z,25.95
2018-06-15T06:49:39.697Z,25.98
2018-06-15T06:50:20.213Z,26.13
2018-06-15T06:51:00.737Z,26.23
2018-06-15T06:51:41.255Z,26.1
2018-06-15T06:52:21.790Z,26.15
2018-06-15T06:53:02.308Z,26.17
2018-06-15T06:53:42.826Z,26.21
2018-06-15T06:54:23.357Z,26.33
2018-06-15T06:55:03.871Z,26.4
2018-06-15T06:55:44.391Z,26.48
2018-06-15T06:56:24.920Z,26.7
2018-06-15T06:57:05.438Z,26.72
2018-06-15T06:57:45.987Z,26.84
2018-06-15T06:58:26.516Z,26.85
2018-06-15T06:59:07.030Z,26.99
2018-06-15T06:59:47.570Z,27.04
2018-06-15T07:00:28.096Z,27.24
2018-06-15T07:01:08.611Z,27.41
2018-06-15T07:01:49.145Z,27.57
2018-06-15T07:02:29.683Z,27.51
2018-06-15T07:03:10.192Z,27.39
2018-06-15T07:03:50.723Z,27.34
2018-06-15T07:04:31.244Z,27.32
2018-06-15T07:05:11.775Z,27.29
2018-06-15T07:05:52.283Z,27.24
2018-06-15T07:06:32.787Z,27.37
2018-06-15T07:07:13.320Z,27.46
2018-06-15T07:07:53.834Z,27.7
2018-06-15T07:08:34.365Z,27.74
2018-06-15T07:09:14.907Z,27.57
2018-06-15T07:09:55.430Z,27.44
2018-06-15T07:10:35.936Z,27.54
2018-06-15T07:11:16.467Z,27.63
2018-06-15T07:11:56.992Z,27.6
2018-06-15T07:12:37.519Z,27.69
2018-06-15T07:13:18.103Z,27.72
2018-06-15T07:13:58.565Z,27.7
2018-06-15T07:14:39.122Z,27.81
2018-06-15T07:15:19.633Z,27.84
2018-06-15T07:16:00.164Z,27.77
2018-06-15T07:16:40.696Z,27.78
2018-06-15T07:17:21.218Z,27.75
2018-06-15T07:18:01.740Z,27.67
2018-06-15T07:18:42.282Z,27.59
2018-06-15T07:19:22.805Z,27.67
2018-06-15T07:20:03.327Z,27.87
2018-06-15T07:20:43.865Z,27.81
2018-06-15T07:21:24.376Z,27.85
2018-06-15T07:22:04.902Z,27.94
2018-06-15T07:22:45.447Z,27.99
2018-06-15T07:23:25.977Z,27.99
2018-06-15T07:24:06.509Z,27.96
2018-06-15T07:24:47.024Z,27.93
2018-06-15T07:25:27.562Z,27.75
2018-06-15T07:26:08.109Z,27.78
2018-06-15T07:26:48.626Z,27.79
2018-06-15T07:27:29.167Z,27.78
2018-06-15T07:28:09.672Z,27.59
2018-06-15T07:28:50.186Z,27.49
2018-06-15T07:29:30.845Z,27.55
2018-06-15T07:30:11.315Z,27.32
2018-06-15T07:30:51.850Z,27.24
2018-06-15T07:31:32.371Z,27.24
2018-06-15T07:32:12.885Z,27.24
2018-06-15T07:32:53.410Z,27.39
2018-06-15T07:33:33.978Z,27.55
2018-06-15T07:34:14.465Z,27.66
2018-06-15T07:34:55.005Z,27.78
2018-06-15T07:35:35.554Z,27.7
2018-06-15T07:36:16.061Z,27.62
2018-06-15T07:36:56.600Z,27.51
2018-06-15T07:37:37.123Z,27.49
2018-06-15T07:38:17.649Z,27.54
2018-06-15T07:38:58.173Z,27.63
2018-06-15T07:39:38.708Z,27.74
2018-06-15T07:40:19.221Z,27.65
2018-06-15T07:40:59.739Z,27.69
2018-06-15T07:41:40.282Z,27.84
2018-06-15T07:42:20.820Z,27.66
2018-06-15T07:43:01.323Z,27.49
2018-06-15T07:43:41.845Z,27.44
2018-06-15T07:44:22.378Z,27.66
2018-06-15T07:45:02.897Z,27.62
2018-06-15T07:45:43.404Z,27.69
2018-06-15T07:46:23.952Z,27.81
2018-06-15T07:47:04.478Z,27.81
2018-06-15T07:47:45.009Z,27.87
2018-06-15T07:48:25.532Z,27.82
2018-06-15T07:49:06.065Z,27.77
2018-06-15T07:49:46.607Z,27.74
2018-06-15T07:50:27.150Z,27.81
2018-06-15T07:51:07.666Z,27.77
2018-06-15T07:51:48.205Z,27.85
2018-06-15T07:52:28.786Z,27.94
2018-06-15T07:53:09.260Z,27.99
2018-06-15T07:53:49.761Z,27.97
2018-06-15T07:54:30.303Z,27.81
2018-06-15T07:55:10.787Z,27.62
2018-06-15T07:55:51.311Z,27.87
2018-06-15T07:56:31.837Z,27.99
2018-06-15T07:57:12.331Z,27.96
2018-06-15T07:57:53.003Z,28.04
2018-06-15T07:58:33.508Z,28
2018-06-15T07:59:14.032Z,27.88
2018-06-15T07:59:54.588Z,28.15
2018-06-15T08:00:35.079Z,28.09
2018-06-15T08:01:15.617Z,27.84
2018-06-15T08:01:56.157Z,27.85
2018-06-15T08:02:36.667Z,27.72
2018-06-15T08:03:17.214Z,27.55
2018-06-15T08:03:57.737Z,27.59
2018-06-15T08:04:38.276Z,27.74
2018-06-15T08:05:18.789Z,27.7
2018-06-15T08:05:59.337Z,27.41
2018-06-15T08:06:39.850Z,27.39
2018-06-15T08:07:20.370Z,27.32
2018-06-15T08:08:00.891Z,27.51
2018-06-15T08:08:41.411Z,27.39
2018-06-15T08:09:21.996Z,27.21
2018-06-15T08:10:02.500Z,27.12
2018-06-15T08:10:43.082Z,27
2018-06-15T08:11:23.585Z,27.09
2018-06-15T08:12:04.091Z,27.09
2018-06-15T08:12:44.611Z,27.21
2018-06-15T08:13:25.153Z,27.06
2018-06-15T08:14:05.656Z,27.04
2018-06-15T08:14:46.179Z,26.85
2018-06-15T08:15:26.702Z,26.99
2018-06-15T08:16:07.225Z,27.09
2018-06-15T08:16:47.736Z,27.17
2018-06-15T08:17:28.275Z,27.04
2018-06-15T08:18:08.798Z,26.95
2018-06-15T08:18:49.323Z,27.14
2018-06-15T08:19:29.839Z,27.1
2018-06-15T08:20:10.367Z,27.13
2018-06-15T08:20:50.889Z,27.07
2018-06-15T08:21:31.443Z,27.04
2018-06-15T08:22:11.938Z,27.17
2018-06-15T08:22:52.499Z,27.25
2018-06-15T08:23:32.984Z,27.18
2018-06-15T08:24:13.520Z,27.18
2018-06-15T08:24:54.044Z,27.17
2018-06-15T08:25:34.574Z,27.29
2018-06-15T08:26:15.097Z,27.4
2018-06-15T08:26:55.640Z,27.44
2018-06-15T08:27:36.204Z,27.29
2018-06-15T08:28:16.741Z,27.13
2018-06-15T08:28:57.252Z,26.87
2018-06-15T08:29:37.788Z,26.91
2018-06-15T08:30:18.318Z,27.03
2018-06-15T08:30:58.856Z,26.99
2018-06-15T08:31:39.397Z,27.07
2018-06-15T08:32:19.933Z,26.89
2018-06-15T08:33:00.466Z,27.04
2018-06-15T08:33:41.037Z,26.95
2018-06-15T08:34:21.584Z,26.82
2018-06-15T08:35:02.106Z,26.76
2018-06-15T08:35:42.644Z,26.92
2018-06-15T08:36:23.150Z,26.87
2018-06-15T08:37:03.673Z,26.88
2018-06-15T08:37:44.205Z,26.94
2018-06-15T08:38:24.731Z,26.82
2018-06-15T08:39:05.256Z,26.92
2018-06-15T08:39:45.803Z,26.7
2018-06-15T08:40:26.355Z,26.57
2018-06-15T08:41:06.890Z,26.58
2018-06-15T08:41:47.421Z,26.48
2018-06-15T08:42:27.957Z,26.5
2018-06-15T08:43:08.530Z,26.6
2018-06-15T08:43:49.051Z,26.63
2018-06-15T08:44:29.613Z,26.58
2018-06-15T08:45:10.127Z,26.72
2018-06-15T08:45:50.665Z,26.85
2018-06-15T08:46:31.186Z,26.82
2018-06-15T08:47:11.740Z,26.97